createdAt,value
2023-02-27T00:00:17.316Z,71.37
2023-02-27T00:02:47.845Z,71.30
2023-02-27T00:05:16.370Z,71.14
2023-02-27T00:07:44.605Z,70.95
2023-02-27T00:10:17.606Z,70.77
2023-02-27T00:12:45.912Z,70.63
2023-02-27T00:15:15.940Z,70.49
2023-02-27T00:17:47.287Z,70.32
2023-02-27T00:20:16.346Z,70.34
2023-02-27T00:22:46.396Z,70.34
2023-02-27T00:25:14.646Z,70.33
2023-02-27T00:27:43.281Z,70.29
2023-02-27T00:30:13.445Z,70.21
2023-02-27T00:32:44.206Z,70.19
2023-02-27T00:35:13.145Z,70.24
2023-02-27T00:37:42.083Z,70.32
2023-02-27T00:40:11.456Z,70.58
2023-02-27T00:42:39.839Z,70.42
2023-02-27T00:45:09.478Z,70.45
2023-02-27T00:47:38.219Z,70.39
2023-02-27T00:50:06.840Z,70.21
2023-02-27T00:52:35.181Z,70.39
2023-02-27T00:55:03.193Z,70.56
2023-02-27T00:57:31.369Z,70.73
2023-02-27T00:59:59.854Z,70.85
2023-02-27T01:02:28.460Z,71.15
2023-02-27T01:04:57.421Z,71.31
2023-02-27T01:07:25.516Z,71.27
2023-02-27T01:09:54.731Z,71.50
2023-02-27T01:12:22.860Z,71.31
2023-02-27T01:14:51.496Z,71.38
2023-02-27T01:17:20.507Z,71.36
2023-02-27T01:19:48.775Z,71.34
2023-02-27T01:22:17.035Z,71.36
2023-02-27T01:24:47.483Z,71.22
2023-02-27T01:27:15.699Z,71.22
2023-02-27T01:29:45.160Z,71.13
2023-02-27T01:32:13.175Z,71.19
2023-02-27T01:34:41.535Z,71.17
2023-02-27T01:37:09.519Z,71.07
2023-02-27T01:39:37.802Z,71.14
2023-02-27T01:42:18.563Z,70.85
2023-02-27T01:45:12.320Z,70.70
2023-02-27T01:47:47.843Z,70.24
2023-02-27T01:50:16.575Z,70.04
2023-02-27T01:52:45.045Z,70.04
2023-02-27T01:55:14.154Z,69.91
2023-02-27T01:57:43.451Z,69.76
2023-02-27T02:00:12.655Z,69.74
2023-02-27T02:02:44.502Z,69.81
2023-02-27T02:05:15.369Z,69.90
2023-02-27T02:07:43.894Z,69.83
2023-02-27T02:10:12.811Z,69.71
2023-02-27T02:12:40.876Z,69.69
2023-02-27T02:15:13.494Z,69.56
2023-02-27T02:18:12.171Z,69.70
2023-02-27T02:21:12.968Z,69.74
2023-02-27T02:23:56.515Z,69.72
2023-02-27T02:26:33.612Z,69.70
2023-02-27T02:29:08.398Z,69.96
2023-02-27T02:31:59.226Z,70.04
2023-02-27T02:34:52.036Z,70.09
2023-02-27T02:37:35.129Z,70.07
2023-02-27T02:40:36.749Z,70.19
2023-02-27T02:43:25.014Z,70.18
2023-02-27T02:46:01.549Z,70.27
2023-02-27T02:48:33.204Z,70.29
2023-02-27T02:51:14.700Z,70.32
2023-02-27T02:53:51.782Z,70.33
2023-02-27T02:56:27.169Z,70.17
2023-02-27T02:59:11.075Z,70.13
2023-02-27T03:01:43.386Z,70.07
2023-02-27T03:04:30.625Z,70.37
2023-02-27T03:07:04.711Z,70.69
2023-02-27T03:09:36.582Z,71.21
2023-02-27T03:12:07.601Z,71.41
2023-02-27T03:14:43.447Z,71.47
2023-02-27T03:17:39.428Z,71.55
2023-02-27T03:20:09.857Z,71.52
2023-02-27T03:22:42.783Z,71.64
2023-02-27T03:25:11.807Z,71.50
2023-02-27T03:27:51.356Z,71.50
2023-02-27T03:30:31.094Z,71.39
2023-02-27T03:33:08.377Z,71.37
2023-02-27T03:36:12.284Z,71.32
2023-02-27T03:38:46.288Z,71.25
2023-02-27T03:41:21.112Z,71.02
2023-02-27T03:44:05.397Z,71.16
2023-02-27T03:46:34.978Z,71.01
2023-02-27T03:49:03.405Z,71.01
2023-02-27T03:51:32.621Z,71.02
2023-02-27T03:54:14.609Z,70.90
2023-02-27T03:56:50.657Z,71.05
2023-02-27T03:59:19.073Z,70.81
2023-02-27T04:01:50.456Z,71.18
2023-02-27T04:04:19.129Z,71.00
2023-02-27T04:07:25.005Z,70.82
2023-02-27T04:10:04.250Z,70.89
2023-02-27T04:13:03.380Z,70.72
2023-02-27T04:16:06.929Z,70.50
2023-02-27T04:18:50.694Z,70.46
2023-02-27T04:21:18.754Z,70.46
2023-02-27T04:23:57.898Z,70.31
2023-02-27T04:26:32.284Z,70.19
2023-02-27T04:29:08.116Z,70.23
2023-02-27T04:31:57.316Z,70.37
2023-02-27T04:34:39.070Z,70.47
2023-02-27T04:37:19.134Z,70.46
2023-02-27T04:40:00.761Z,70.66
2023-02-27T04:42:38.125Z,70.60
2023-02-27T04:45:08.615Z,70.57
2023-02-27T04:47:40.174Z,70.45
2023-02-27T04:50:14.505Z,70.51
2023-02-27T04:52:50.367Z,70.50
2023-02-27T04:55:27.244Z,70.62
2023-02-27T04:58:17.652Z,70.57
2023-02-27T05:00:48.139Z,70.57
2023-02-27T05:03:24.235Z,70.30
2023-02-27T05:05:53.938Z,70.17
2023-02-27T05:08:28.424Z,70.26
2023-02-27T05:11:09.606Z,70.02
2023-02-27T05:13:50.011Z,69.89
2023-02-27T05:16:24.038Z,69.77
2023-02-27T05:18:54.716Z,69.58
2023-02-27T05:21:34.795Z,69.56
2023-02-27T05:24:09.812Z,69.57
2023-02-27T05:27:02.989Z,69.44
2023-02-27T05:30:19.587Z,69.21
2023-02-27T05:33:00.367Z,69.23
2023-02-27T05:35:34.849Z,69.21
2023-02-27T05:38:08.255Z,69.15
2023-02-27T05:40:44.456Z,68.99
2023-02-27T05:43:20.311Z,68.84
2023-02-27T05:45:50.290Z,68.90
2023-02-27T05:48:24.957Z,68.82
2023-02-27T05:50:53.714Z,68.74
2023-02-27T05:53:22.483Z,68.61
2023-02-27T05:55:52.820Z,68.52
2023-02-27T05:58:44.065Z,68.47
2023-02-27T06:01:12.441Z,68.29
2023-02-27T06:03:40.755Z,68.30
2023-02-27T06:06:12.758Z,68.31
2023-02-27T06:08:40.987Z,68.41
2023-02-27T06:11:09.170Z,68.36
2023-02-27T06:13:37.253Z,68.48
2023-02-27T06:16:05.841Z,68.41
2023-02-27T06:18:34.152Z,68.48
2023-02-27T06:21:02.373Z,68.39
2023-02-27T06:23:34.157Z,68.28
2023-02-27T06:26:03.249Z,68.25
2023-02-27T06:28:31.367Z,68.37
2023-02-27T06:30:59.811Z,68.40
2023-02-27T06:33:27.906Z,68.38
2023-02-27T06:35:58.663Z,68.47
2023-02-27T06:38:27.222Z,68.53
2023-02-27T06:40:56.730Z,68.46
2023-02-27T06:43:24.820Z,68.31
2023-02-27T06:45:56.176Z,68.43
2023-02-27T06:48:24.456Z,68.49
2023-02-27T06:50:53.744Z,68.57
2023-02-27T06:53:23.816Z,68.66
2023-02-27T06:55:52.008Z,68.54
2023-02-27T06:58:21.151Z,68.67
2023-02-27T07:00:49.341Z,68.78
2023-02-27T07:03:17.458Z,68.59
2023-02-27T07:05:50.443Z,68.56
2023-02-27T07:08:18.820Z,68.37
2023-02-27T07:10:49.201Z,68.14
2023-02-27T07:13:19.688Z,68.13
2023-02-27T07:15:49.123Z,68.18
2023-02-27T07:18:17.321Z,68.35
2023-02-27T07:20:45.525Z,68.66
2023-02-27T07:23:13.921Z,68.59
2023-02-27T07:25:41.943Z,68.52
2023-02-27T07:28:10.208Z,68.79
2023-02-27T07:30:38.219Z,69.08
2023-02-27T07:33:07.329Z,68.93
2023-02-27T07:35:35.486Z,69.29
2023-02-27T07:38:03.841Z,69.55
2023-02-27T07:40:32.317Z,69.54
2023-02-27T07:43:05.860Z,69.44
2023-02-27T07:45:34.239Z,69.66
2023-02-27T07:48:02.405Z,69.65
2023-02-27T07:50:31.020Z,69.69
2023-02-27T07:52:59.095Z,69.66
2023-02-27T07:55:27.307Z,69.60
2023-02-27T07:57:55.517Z,69.38
2023-02-27T08:00:23.801Z,69.81
2023-02-27T08:02:51.966Z,70.02
2023-02-27T08:05:20.060Z,70.00
2023-02-27T08:07:48.774Z,69.84
2023-02-27T08:10:19.450Z,69.67
2023-02-27T08:12:48.506Z,69.58
2023-02-27T08:15:17.648Z,69.62
2023-02-27T08:17:46.838Z,69.65
2023-02-27T08:20:15.085Z,69.47
2023-02-27T08:22:43.184Z,69.63
2023-02-27T08:25:11.408Z,69.61
2023-02-27T08:27:39.552Z,69.70
2023-02-27T08:30:09.339Z,69.79
2023-02-27T08:32:38.725Z,69.59
2023-02-27T08:35:07.128Z,69.65
2023-02-27T08:37:35.725Z,70.11
2023-02-27T08:40:06.932Z,70.23
2023-02-27T08:42:35.091Z,70.49
2023-02-27T08:45:05.236Z,70.44
2023-02-27T08:47:33.777Z,70.57
2023-02-27T08:50:02.286Z,70.26
2023-02-27T08:52:30.447Z,70.20
2023-02-27T08:54:58.655Z,70.17
2023-02-27T08:57:27.252Z,70.37
2023-02-27T08:59:55.311Z,70.05
2023-02-27T09:02:26.120Z,70.23
2023-02-27T09:04:54.319Z,70.17
2023-02-27T09:07:22.400Z,69.87
2023-02-27T09:09:50.807Z,69.46
2023-02-27T09:12:21.518Z,69.35
2023-02-27T09:14:50.093Z,69.61
2023-02-27T09:17:21.194Z,69.54
2023-02-27T09:19:53.852Z,69.55
2023-02-27T09:22:23.214Z,69.78
2023-02-27T09:24:52.272Z,69.67
2023-02-27T09:27:20.310Z,70.10
2023-02-27T09:29:49.090Z,70.15
2023-02-27T09:32:17.362Z,70.22
2023-02-27T09:34:45.732Z,69.93
2023-02-27T09:37:13.995Z,69.94
2023-02-27T09:39:44.582Z,69.66
2023-02-27T09:42:21.300Z,69.72
2023-02-27T09:44:51.019Z,69.77
2023-02-27T09:47:26.808Z,69.52
2023-02-27T09:49:59.647Z,69.63
2023-02-27T09:52:28.660Z,69.58
2023-02-27T09:54:56.832Z,70.06
2023-02-27T09:57:32.050Z,69.63
2023-02-27T10:00:02.123Z,69.73
2023-02-27T10:02:56.215Z,69.72
2023-02-27T10:05:42.556Z,69.66
2023-02-27T10:09:28.423Z,69.71
2023-02-27T10:12:27.282Z,69.89
2023-02-27T10:15:03.227Z,69.92
2023-02-27T10:17:58.103Z,69.69
2023-02-27T10:20:32.482Z,69.80
2023-02-27T10:23:03.570Z,70.06
2023-02-27T10:25:33.865Z,70.19
2023-02-27T10:28:11.784Z,70.14
2023-02-27T10:30:40.150Z,70.26
2023-02-27T10:33:22.962Z,70.15
2023-02-27T10:35:53.664Z,70.27
2023-02-27T10:38:33.728Z,70.59
2023-02-27T10:41:02.537Z,70.36
2023-02-27T10:43:31.060Z,70.23
2023-02-27T10:46:02.930Z,70.50
2023-02-27T10:48:33.046Z,70.34
2023-02-27T10:51:23.085Z,70.17
2023-02-27T10:53:54.355Z,70.24
2023-02-27T10:56:25.865Z,70.20
2023-02-27T10:59:07.924Z,70.07
2023-02-27T11:01:47.786Z,70.24
2023-02-27T11:04:24.203Z,70.32
2023-02-27T11:06:53.449Z,70.20
2023-02-27T11:09:26.773Z,70.13
2023-02-27T11:11:54.942Z,69.94
2023-02-27T11:14:32.440Z,69.96
2023-02-27T11:17:02.100Z,70.04
2023-02-27T11:19:34.764Z,69.76
2023-02-27T11:22:03.037Z,69.83
2023-02-27T11:24:31.244Z,70.03
2023-02-27T11:27:03.804Z,69.98
2023-02-27T11:29:33.816Z,69.94
2023-02-27T11:32:10.305Z,69.97
2023-02-27T11:34:47.668Z,69.64
2023-02-27T11:37:32.645Z,69.81
2023-02-27T11:40:06.721Z,69.45
2023-02-27T11:42:35.954Z,69.15
2023-02-27T11:46:04.508Z,69.40
2023-02-27T11:48:46.907Z,69.38
2023-02-27T11:51:42.971Z,69.00
2023-02-27T11:54:15.907Z,69.37
2023-02-27T11:56:47.568Z,69.49
2023-02-27T11:59:23.157Z,69.70
2023-02-27T12:01:55.801Z,69.93
2023-02-27T12:04:33.927Z,70.02
2023-02-27T12:07:10.016Z,70.14
2023-02-27T12:13:43.784Z,69.97
2023-02-27T12:16:32.268Z,69.92
2023-02-27T12:19:23.994Z,70.22
2023-02-27T12:22:17.580Z,70.03
2023-02-27T12:24:55.990Z,70.17
2023-02-27T12:27:26.259Z,69.90
2023-02-27T12:30:15.303Z,70.22
2023-02-27T12:32:45.385Z,70.66
2023-02-27T12:35:28.992Z,70.08
2023-02-27T12:37:57.438Z,70.20
2023-02-27T12:40:41.456Z,69.87
2023-02-27T12:43:15.769Z,69.92
2023-02-27T12:45:53.982Z,70.21
2023-02-27T12:48:31.098Z,70.04
2023-02-27T12:51:19.882Z,70.08
2023-02-27T12:54:06.247Z,70.10
2023-02-27T12:56:56.713Z,69.90
2023-02-27T12:59:30.928Z,70.09
2023-02-27T13:02:26.916Z,69.96
2023-02-27T13:05:04.656Z,69.98
2023-02-27T13:07:38.878Z,70.03
2023-02-27T13:10:28.781Z,70.28
2023-02-27T13:13:22.802Z,70.21
2023-02-27T13:16:01.668Z,70.06
2023-02-27T13:18:47.271Z,70.03
2023-02-27T13:21:36.195Z,70.27
2023-02-27T13:24:26.910Z,70.23
2023-02-27T13:26:59.904Z,70.31
2023-02-27T13:29:55.173Z,70.47
2023-02-27T13:32:43.738Z,70.55
2023-02-27T13:35:33.534Z,70.56
2023-02-27T13:38:44.921Z,70.31
2023-02-27T13:41:28.007Z,70.23
2023-02-27T13:43:57.357Z,70.23
2023-02-27T13:46:30.151Z,70.44
2023-02-27T13:49:05.894Z,70.37
2023-02-27T13:51:40.070Z,70.69
2023-02-27T13:54:09.777Z,70.86
2023-02-27T13:56:46.782Z,70.79
2023-02-27T13:59:22.742Z,71.01
2023-02-27T14:02:01.770Z,71.05
2023-02-27T14:04:33.032Z,70.94
2023-02-27T14:07:12.450Z,70.89
2023-02-27T14:09:42.896Z,70.92
2023-02-27T14:12:30.917Z,70.93
2023-02-27T14:19:44.325Z,70.58
2023-02-27T14:22:12.550Z,70.59
2023-02-27T14:24:49.677Z,70.63
2023-02-27T14:27:24.172Z,71.04
2023-02-27T14:29:54.557Z,71.00
2023-02-27T14:32:25.725Z,71.17
2023-02-27T14:34:54.050Z,71.08
2023-02-27T14:37:23.687Z,71.07
2023-02-27T14:39:53.089Z,71.13
2023-02-27T14:42:53.614Z,71.10
2023-02-27T14:45:24.567Z,70.97
2023-02-27T14:47:52.846Z,70.87
2023-02-27T14:50:37.366Z,70.96
2023-02-27T14:53:07.337Z,70.87
2023-02-27T14:55:37.507Z,71.24
2023-02-27T14:58:18.241Z,71.25
2023-02-27T15:00:58.257Z,71.09
2023-02-27T15:03:47.498Z,71.25
2023-02-27T15:06:45.700Z,71.08
2023-02-27T15:09:42.996Z,71.02
2023-02-27T15:12:17.406Z,70.95
2023-02-27T15:15:04.955Z,70.84
2023-02-27T15:17:40.793Z,71.23
2023-02-27T15:25:47.092Z,71.20
2023-02-27T15:28:24.173Z,70.91
2023-02-27T15:30:53.048Z,71.15
2023-02-27T15:33:28.992Z,70.96
2023-02-27T15:35:57.567Z,70.76
2023-02-27T15:38:34.401Z,70.77
2023-02-27T15:41:03.263Z,70.82
2023-02-27T15:43:31.525Z,70.87
2023-02-27T15:46:00.450Z,70.96
2023-02-27T15:48:29.930Z,71.08
2023-02-27T15:50:58.647Z,71.12
2023-02-27T15:53:28.942Z,71.26
2023-02-27T15:56:04.402Z,71.01
2023-02-27T15:59:00.198Z,70.88
2023-02-27T16:01:32.531Z,71.09
2023-02-27T16:04:03.417Z,71.02
2023-02-27T16:06:34.954Z,70.97
2023-02-27T16:09:23.054Z,71.13
2023-02-27T16:12:30.117Z,71.37
2023-02-27T16:15:19.826Z,71.48
2023-02-27T16:18:15.398Z,71.70
2023-02-27T16:20:45.335Z,71.52
2023-02-27T16:23:20.863Z,71.91
2023-02-27T16:30:34.274Z,71.91
2023-02-27T16:42:15.365Z,71.44
2023-02-27T16:44:45.208Z,71.56
2023-02-27T16:47:13.644Z,71.25
2023-02-27T16:49:44.437Z,71.26
2023-02-27T16:52:12.750Z,71.17
2023-02-27T16:54:40.943Z,71.25
2023-02-27T16:57:09.844Z,71.26
2023-02-27T16:59:42.407Z,71.32
2023-02-27T17:02:13.207Z,71.28
2023-02-27T17:04:47.014Z,71.32
2023-02-27T17:07:16.306Z,71.69
2023-02-27T17:09:45.103Z,71.53
2023-02-27T17:12:15.755Z,71.42
2023-02-27T17:14:45.496Z,71.35
2023-02-27T17:17:13.752Z,71.19
2023-02-27T17:19:41.859Z,70.98
2023-02-27T17:22:10.754Z,70.55
2023-02-27T17:24:40.092Z,70.56
2023-02-27T17:27:08.672Z,70.47
2023-02-27T17:29:38.606Z,70.52
2023-02-27T17:32:07.612Z,70.23
2023-02-27T17:34:35.997Z,70.38
2023-02-27T17:37:04.433Z,70.16
2023-02-27T17:39:33.537Z,70.43
2023-02-27T17:42:01.662Z,70.25
2023-02-27T17:44:29.798Z,70.10
2023-02-27T17:47:00.864Z,69.86
2023-02-27T17:49:29.071Z,69.66
2023-02-27T17:52:00.687Z,69.37
2023-02-27T17:54:28.892Z,69.37
2023-02-27T17:56:57.629Z,69.12
2023-02-27T17:59:25.701Z,69.19
2023-02-27T18:01:55.573Z,68.94
2023-02-27T18:04:23.987Z,69.10
2023-02-27T18:06:52.163Z,68.91
2023-02-27T18:09:21.626Z,68.75
2023-02-27T18:11:49.997Z,68.96
2023-02-27T18:14:18.219Z,68.77
2023-02-27T18:16:46.700Z,68.93
2023-02-27T18:19:14.714Z,68.62
2023-02-27T18:21:44.609Z,68.93
2023-02-27T18:24:15.505Z,68.68
2023-02-27T18:26:43.645Z,68.02
2023-02-27T18:29:11.996Z,68.20
2023-02-27T18:31:42.919Z,68.30
2023-02-27T18:34:11.287Z,67.84
2023-02-27T18:36:39.570Z,67.81
2023-02-27T18:39:07.896Z,67.96
2023-02-27T18:51:03.246Z,68.31
2023-02-27T18:53:35.401Z,68.07
2023-02-27T18:56:04.625Z,67.97
2023-02-27T18:58:34.764Z,68.17
2023-02-27T19:01:04.203Z,68.97
2023-02-27T19:03:32.404Z,68.90
2023-02-27T19:06:00.616Z,69.03
2023-02-27T19:08:29.257Z,68.55
2023-02-27T19:10:58.129Z,68.36
2023-02-27T19:13:26.260Z,68.34
2023-02-27T19:15:58.433Z,68.16
2023-02-27T19:18:26.454Z,67.55
2023-02-27T19:20:56.411Z,66.94
2023-02-27T19:23:25.656Z,66.94
2023-02-27T19:26:00.688Z,66.47
2023-02-27T19:28:28.767Z,65.84
2023-02-27T19:30:58.305Z,65.82
2023-02-27T19:33:26.541Z,65.91
2023-02-27T19:35:56.872Z,65.46
2023-02-27T19:38:24.945Z,65.37
2023-02-27T19:40:53.315Z,65.85
2023-02-27T19:43:21.718Z,65.85
2023-02-27T19:45:53.992Z,66.50
2023-02-27T19:48:22.098Z,66.07
2023-02-27T19:59:50.790Z,65.43
2023-02-27T20:02:18.898Z,65.19
2023-02-27T20:04:47.391Z,65.27
2023-02-27T20:07:15.358Z,65.25
2023-02-27T20:09:43.335Z,64.88
2023-02-27T20:12:11.836Z,64.48
2023-02-27T20:14:41.078Z,64.29
2023-02-27T20:17:09.361Z,64.50
2023-02-27T20:19:37.358Z,64.28
2023-02-27T20:22:05.579Z,64.40
2023-02-27T20:24:33.623Z,64.20
2023-02-27T20:27:04.642Z,64.16
2023-02-27T20:29:32.723Z,63.72
2023-02-27T20:32:01.386Z,64.29
2023-02-27T20:34:30.348Z,63.89
2023-02-27T20:36:58.504Z,63.86
2023-02-27T20:39:28.661Z,63.78
2023-02-27T20:41:57.164Z,63.56
2023-02-27T20:44:25.111Z,63.44
2023-02-27T20:46:53.339Z,63.55
2023-02-27T20:49:27.774Z,63.69
2023-02-27T20:51:56.166Z,63.38
2023-02-27T20:54:24.534Z,63.32
2023-02-27T20:56:52.988Z,63.47
2023-02-27T20:59:21.998Z,63.39
2023-02-27T21:01:52.752Z,63.15
2023-02-27T21:04:43.264Z,63.59
2023-02-27T21:07:13.374Z,63.36
2023-02-27T21:09:42.255Z,63.47
2023-02-27T21:12:10.360Z,63.30
2023-02-27T21:14:38.596Z,63.22
2023-02-27T21:17:06.846Z,63.12
2023-02-27T21:19:39.959Z,63.37
2023-02-27T21:22:11.142Z,63.43
2023-02-27T21:24:39.309Z,62.98
2023-02-27T21:27:07.557Z,63.26
2023-02-27T21:29:36.306Z,63.01
2023-02-27T21:32:04.798Z,63.32
2023-02-27T21:34:34.255Z,63.47
2023-02-27T21:37:06.281Z,63.33
2023-02-27T21:39:50.638Z,63.00
2023-02-27T21:42:18.815Z,63.10
2023-02-27T21:44:47.190Z,62.94
2023-02-27T21:47:17.243Z,63.03
2023-02-27T21:49:47.035Z,63.35
2023-02-27T21:52:15.059Z,63.27
2023-02-27T21:54:43.161Z,63.12
2023-02-27T21:57:11.143Z,63.39
2023-02-27T21:59:42.458Z,63.36
2023-02-27T22:02:11.167Z,63.26
2023-02-27T22:04:39.400Z,63.31
2023-02-27T22:07:08.430Z,63.42
2023-02-27T22:09:39.070Z,63.82
2023-02-27T22:12:07.163Z,63.81
2023-02-27T22:14:35.457Z,63.78
2023-02-27T22:17:05.869Z,63.82
2023-02-27T22:19:33.965Z,63.42
2023-02-27T22:22:02.091Z,63.90
2023-02-27T22:24:30.291Z,63.30
2023-02-27T22:26:58.538Z,63.72
2023-02-27T22:29:27.324Z,63.89
2023-02-27T22:31:55.617Z,63.82
2023-02-27T22:34:24.050Z,63.80
2023-02-27T22:36:53.275Z,63.51
2023-02-27T22:39:26.085Z,63.34
2023-02-27T22:41:55.958Z,63.74
2023-02-27T22:44:24.894Z,63.68
2023-02-27T22:46:54.648Z,63.85
2023-02-27T22:49:23.565Z,64.09
2023-02-27T22:51:52.448Z,64.27
2023-02-27T22:54:21.668Z,64.53
2023-02-27T22:56:51.647Z,64.53
2023-02-27T22:59:30.698Z,64.72
2023-02-27T23:01:59.503Z,64.96
2023-02-27T23:04:27.925Z,65.13
2023-02-27T23:06:56.549Z,65.08
2023-02-27T23:09:26.209Z,65.22
2023-02-27T23:11:55.113Z,64.94
2023-02-27T23:14:23.720Z,65.13
2023-02-27T23:16:51.873Z,65.18
2023-02-27T23:19:20.561Z,64.97
2023-02-27T23:21:54.860Z,65.07
2023-02-27T23:24:22.813Z,64.87
2023-02-27T23:26:52.361Z,64.83
2023-02-27T23:29:20.869Z,64.90
2023-02-27T23:31:49.252Z,64.63
2023-02-27T23:34:18.304Z,64.68
2023-02-27T23:36:46.438Z,64.49
2023-02-27T23:39:14.513Z,64.47
2023-02-27T23:41:43.062Z,64.27
2023-02-27T23:44:11.151Z,64.17
2023-02-27T23:46:40.770Z,64.07
2023-02-27T23:49:12.348Z,63.72
2023-02-27T23:51:41.499Z,63.94
2023-02-27T23:54:10.707Z,64.01
2023-02-27T23:56:39.142Z,63.63
2023-02-27T23:59:07.611Z,63.46
